home support login
SAVED Flights LIVE Flights

Mascouche- Runway 11- Cross wind training by JPFly

 
Description

072000Z 33008KT 15SM FEW050 BKN068 BKN120 15/06 A2981 RMK SC2AC4AC1 ACC SE SLP095=

Maximum Speed: 198 km/h
Maximum Altitude: 299 m
Total Time: 1 hr, 24 min, 48 sec
Total Distance: 46.1 km
Flight Date:
 
map controls

arrow Rotation, and 3D manoeuvring.
Alternatively, hold 'shift' when you click + drag the map

arrow Move forward/back/left/right.
Alternatively, click + drag the map

arrow Zoom in / out.
Alternatively, scroll your mouse wheel

Colour Flight path based on
Time
Speed
Altitude
START
END
Google Map Legend
Flight Detail
Normal (max. 1000 points)
High (max. 4000 points)
Comments
 
You need to login to post.
No account? Register for free now.


 
You need to login to post.
No account? Register for free now.